Aviation Digital Data Service (ADDS)

Output produced by METARs form (0211 UTC 24 November 2017)
found at http://www.aviationweather.gov/adds/metars/
 
METAR text: EFUT 240150Z AUTO 15013KT 130V190 3400 BR OVC002 02/01 Q1006
Conditions at: EFUT (UTTI (FIN-AFB) , FI) observed 0150 UTC 24 November 2017
Temperature: 2.0°C (36°F)
Dewpoint: 1.0°C (34°F) [RH = 93%]
Pressure (altimeter): 29.70 inches Hg (1006.0 mb)
Winds: from the SSE (150 degrees) at 15 MPH (13 knots; 6.8 m/s)
Visibility: 2.11 miles (3.40 km)
Ceiling: 200 feet AGL
Clouds: overcast cloud deck at 200 feet AGL
Weather: BR  (mist)